Time;durP1;ratioP1;P1;durP2;ratioP2;P2;SDS_P1;SDS_P2;PMS_P1;PMS_P2;Temp;Humidity;BMP_temperature;BMP_pressure;BME280_temperature;BME280_humidity;BME280_pressure;Samples;Min_cycle;Max_cycle;Signal;HPM_P1;HPM_P2
2022/09/14 00:00:15;;;;;;;14.00;13.30;;;;;;;13.16;100.00;100336.59;5042134;28;20420;-61
2022/09/14 00:02:41;;;;;;;13.95;13.25;;;;;;;13.28;100.00;100337.69;5051286;28;20043;-62
2022/09/14 00:05:06;;;;;;;13.80;13.10;;;;;;;13.24;100.00;100341.78;5033664;28;20523;-62
2022/09/14 00:07:32;;;;;;;14.30;13.50;;;;;;;13.18;100.00;100343.38;5051622;28;20051;-62
2022/09/14 00:09:57;;;;;;;14.48;13.68;;;;;;;13.23;100.00;100343.63;5049566;28;20032;-62
2022/09/14 00:12:23;;;;;;;13.75;13.05;;;;;;;13.36;100.00;100345.53;5051560;28;20020;-62
2022/09/14 00:14:49;;;;;;;14.27;13.57;;;;;;;13.25;100.00;100338.09;5051726;28;20103;-62
2022/09/14 00:17:14;;;;;;;14.38;13.57;;;;;;;13.35;100.00;100341.22;5040899;28;20029;-62
2022/09/14 00:19:40;;;;;;;13.95;13.25;;;;;;;13.38;100.00;100340.84;5051321;28;20028;-62
2022/09/14 00:22:05;;;;;;;13.63;12.95;;;;;;;13.35;100.00;100330.56;5051616;28;20025;-62
2022/09/14 00:24:31;;;;;;;14.15;13.38;;;;;;;13.41;100.00;100331.63;5050579;28;20021;-62
2022/09/14 00:26:57;;;;;;;14.15;13.38;;;;;;;13.26;100.00;100329.91;5050762;28;20477;-64
2022/09/14 00:29:23;;;;;;;13.77;13.07;;;;;;;13.21;100.00;100328.84;5058951;28;20035;-62
2022/09/14 00:31:48;;;;;;;14.68;13.88;;;;;;;13.08;100.00;100337.56;5051154;28;20031;-62
2022/09/14 00:34:15;;;;;;;14.63;13.82;;;;;;;13.07;100.00;100335.09;5040045;28;20057;-62
2022/09/14 00:36:43;;;;;;;14.07;13.38;;;;;;;12.95;100.00;100332.97;5051166;28;20020;-63
2022/09/14 00:39:10;;;;;;;14.50;13.70;;;;;;;12.92;100.00;100335.19;5050119;28;20041;-62
2022/09/14 00:41:38;;;;;;;14.57;13.77;;;;;;;12.75;100.00;100334.66;5040079;28;20025;-62
2022/09/14 00:44:03;;;;;;;13.95;13.25;;;;;;;12.90;100.00;100338.06;5054350;28;20396;-62
2022/09/14 00:46:34;;;;;;;14.40;13.60;;;;;;;12.98;100.00;100329.91;5051360;28;20024;-63
2022/09/14 00:49:03;;;;;;;15.52;14.63;;;;;;;12.88;100.00;100339.28;5051609;28;20033;-63
2022/09/14 00:51:31;;;;;;;14.10;13.40;;;;;;;12.95;100.00;100335.63;5053829;28;20025;-63
2022/09/14 00:53:59;;;;;;;14.52;13.73;;;;;;;12.95;100.00;100329.50;5054950;28;20025;-63
2022/09/14 00:56:25;;;;;;;14.20;13.40;;;;;;;12.93;100.00;100327.03;5054506;28;20095;-62
2022/09/14 00:58:54;;;;;;;14.45;13.65;;;;;;;12.95;100.00;100322.31;5053913;28;20053;-62
2022/09/14 01:01:20;;;;;;;14.52;13.73;;;;;;;12.98;100.00;100319.25;5053927;28;20059;-62
2022/09/14 01:03:45;;;;;;;14.10;13.30;;;;;;;13.05;100.00;100321.16;5054832;28;20056;-63
2022/09/14 01:06:17;;;;;;;13.70;13.00;;;;;;;13.07;100.00;100321.75;5054026;28;20033;-63
2022/09/14 01:09:07;;;;;;;15.40;14.50;;;;;;;12.91;100.00;100318.41;5054645;28;20108;-63
2022/09/14 01:11:37;;;;;;;13.70;13.00;;;;;;;13.04;100.00;100322.16;5054872;28;20028;-63
2022/09/14 01:14:20;;;;;;;14.38;13.57;;;;;;;13.10;100.00;100322.22;5054519;28;20404;-63
2022/09/14 01:17:05;;;;;;;15.13;14.23;;;;;;;13.12;100.00;100314.03;5048952;28;20773;-63
2022/09/14 01:20:13;;;;;;;14.85;14.00;;;;;;;13.14;100.00;100314.63;5054803;28;20021;-62
2022/09/14 01:22:47;;;;;;;13.75;13.05;;;;;;;13.18;100.00;100311.41;5031294;28;20540;-62
2022/09/14 01:25:46;;;;;;;13.65;12.95;;;;;;;13.16;100.00;100315.28;5050839;28;20045;-62
2022/09/14 01:28:22;;;;;;;14.52;13.73;;;;;;;13.05;100.00;100311.31;5054369;28;20028;-61
2022/09/14 01:30:51;;;;;;;13.85;13.15;;;;;;;13.05;100.00;100307.84;5053851;28;20043;-61
2022/09/14 01:33:43;;;;;;;13.68;12.98;;;;;;;13.06;100.00;100291.66;5054122;28;20032;-63
2022/09/14 01:36:11;;;;;;;13.73;13.02;;;;;;;13.17;100.00;100292.97;5037540;28;20111;-63
2022/09/14 01:38:42;;;;;;;14.02;13.32;;;;;;;13.23;100.00;100297.53;5041916;28;20064;-63
2022/09/14 01:41:15;;;;;;;13.95;13.25;;;;;;;13.16;100.00;100293.97;5052242;28;20013;-62
2022/09/14 01:43:49;;;;;;;14.20;13.40;;;;;;;13.21;100.00;100286.22;5047307;28;20039;-63
2022/09/14 01:46:22;;;;;;;13.65;12.95;;;;;;;13.28;100.00;100290.56;5053967;28;20028;-63
2022/09/14 01:49:03;;;;;;;13.57;12.88;;;;;;;13.31;100.00;100291.22;5040572;28;20024;-62
2022/09/14 01:51:36;;;;;;;13.63;12.93;;;;;;;13.31;100.00;100286.72;5052727;28;20025;-61
2022/09/14 01:54:22;;;;;;;13.55;12.85;;;;;;;13.21;100.00;100272.91;5051732;28;20036;-62
2022/09/14 01:56:57;;;;;;;13.98;13.27;;;;;;;13.31;100.00;100294.69;5046751;28;20034;-63
2022/09/14 01:59:26;;;;;;;13.65;12.95;;;;;;;13.23;100.00;100285.03;5053664;28;20044;-61
2022/09/14 02:01:59;;;;;;;13.70;13.00;;;;;;;13.34;100.00;100280.16;5053608;28;20033;-62
2022/09/14 02:04:35;;;;;;;14.57;13.77;;;;;;;13.35;100.00;100276.47;5052892;28;20041;-61
2022/09/14 02:07:01;;;;;;;14.20;13.40;;;;;;;13.33;100.00;100270.50;5053462;28;20033;-63
2022/09/14 02:09:27;;;;;;;13.70;13.00;;;;;;;13.36;100.00;100270.91;5052359;28;20028;-63
2022/09/14 02:11:54;;;;;;;15.10;14.23;;;;;;;13.37;100.00;100264.59;5052237;28;20033;-62
2022/09/14 02:14:21;;;;;;;14.23;13.45;;;;;;;13.26;100.00;100267.81;5048873;28;20429;-63
2022/09/14 02:16:47;;;;;;;14.13;13.35;;;;;;;13.37;100.00;100264.59;5052061;28;20026;-63
2022/09/14 02:19:13;;;;;;;13.75;13.05;;;;;;;13.49;100.00;100262.16;5053386;28;20028;-63
2022/09/14 02:21:39;;;;;;;14.57;13.77;;;;;;;13.28;100.00;100281.75;5052536;28;20029;-61
2022/09/14 02:24:06;;;;;;;14.98;14.10;;;;;;;13.22;100.00;100277.22;5053443;28;20024;-62
2022/09/14 02:26:31;;;;;;;14.45;13.63;;;;;;;12.99;100.00;100285.47;5052248;28;20167;-62
2022/09/14 02:28:57;;;;;;;13.57;12.88;;;;;;;12.80;100.00;100272.88;5043681;28;20113;-62
2022/09/14 02:32:06;;;;;;;14.95;14.10;;;;;;;12.82;100.00;100279.63;5049716;28;20078;-62
2022/09/14 02:35:00;;;;;;;14.13;13.38;;;;;;;12.85;100.00;100284.59;5041215;28;20591;-63
2022/09/14 02:37:45;;;;;;;14.57;13.77;;;;;;;12.82;100.00;100276.16;5059269;28;20032;-62
2022/09/14 02:40:28;;;;;;;13.93;13.23;;;;;;;12.80;100.00;100272.88;5046226;28;20025;-63
2022/09/14 02:43:15;;;;;;;14.83;14.03;;;;;;;12.32;100.00;100275.38;5051945;28;20496;-63
2022/09/14 02:45:55;;;;;;;14.55;13.75;;;;;;;12.03;100.00;100271.03;5038389;28;20049;-62
2022/09/14 02:48:24;;;;;;;14.60;13.80;;;;;;;11.96;100.00;100276.28;5052858;28;20029;-62
2022/09/14 02:51:24;;;;;;;14.15;13.45;;;;;;;11.62;100.00;100282.25;5051801;28;20500;-62
2022/09/14 02:53:59;;;;;;;15.32;14.48;;;;;;;11.62;100.00;100271.63;5052943;28;20362;-62
2022/09/14 02:56:27;;;;;;;14.90;14.10;;;;;;;11.63;100.00;100278.56;5052216;28;20388;-62
2022/09/14 02:58:53;;;;;;;15.23;14.43;;;;;;;11.67;100.00;100279.00;5051560;28;20078;-62
2022/09/14 03:01:20;;;;;;;15.73;14.90;;;;;;;11.64;100.00;100282.88;5041138;28;20017;-63
2022/09/14 03:03:46;;;;;;;17.52;16.42;;;;;;;11.72;100.00;100282.75;5052178;28;20021;-62
2022/09/14 03:06:12;;;;;;;16.40;15.50;;;;;;;11.75;100.00;100285.06;5052423;28;20029;-62
2022/09/14 03:08:37;;;;;;;17.83;16.73;;;;;;;11.58;100.00;100278.31;5052648;28;20025;-62
2022/09/14 03:11:04;;;;;;;18.02;16.92;;;;;;;11.54;100.00;100277.06;5050963;28;20407;-63
2022/09/14 03:13:29;;;;;;;16.08;15.20;;;;;;;11.50;100.00;100281.91;5051019;28;20032;-63
2022/09/14 03:15:55;;;;;;;16.83;15.82;;;;;;;11.75;100.00;100278.88;5047471;28;20025;-62
2022/09/14 03:18:20;;;;;;;16.27;15.38;;;;;;;11.91;100.00;100286.69;5052118;28;20053;-61
2022/09/14 03:20:46;;;;;;;15.65;14.85;;;;;;;12.02;100.00;100282.69;5052258;28;20017;-63
2022/09/14 03:23:12;;;;;;;15.85;15.02;;;;;;;12.00;100.00;100282.88;5052548;28;20162;-62
2022/09/14 03:25:40;;;;;;;16.23;15.32;;;;;;;12.06;100.00;100276.81;5052247;28;20032;-62
2022/09/14 03:28:07;;;;;;;16.23;15.32;;;;;;;12.10;100.00;100278.06;5051986;28;20024;-62
2022/09/14 03:30:33;;;;;;;16.48;15.48;;;;;;;12.08;100.00;100274.78;5043847;28;20033;-63
2022/09/14 03:32:59;;;;;;;15.73;14.82;;;;;;;12.17;100.00;100278.13;5049493;28;20033;-61
2022/09/14 03:35:30;;;;;;;15.13;14.32;;;;;;;12.27;100.00;100283.94;5046663;28;20473;-63
2022/09/14 03:37:56;;;;;;;15.65;14.75;;;;;;;12.20;100.00;100283.06;5048789;28;20484;-62
2022/09/14 03:40:21;;;;;;;15.70;14.80;;;;;;;12.34;100.00;100287.50;5051979;28;20017;-62
2022/09/14 03:42:49;;;;;;;15.10;14.30;;;;;;;12.41;100.00;100290.19;5051513;28;20495;-63
2022/09/14 03:45:16;;;;;;;15.68;14.77;;;;;;;12.36;100.00;100288.13;5038085;28;20076;-63
2022/09/14 03:47:42;;;;;;;15.70;14.80;;;;;;;12.38;100.00;100294.06;5042937;28;20059;-63
2022/09/14 03:50:10;;;;;;;15.60;14.70;;;;;;;12.42;100.00;100302.50;5050432;28;20086;-61
2022/09/14 03:52:36;;;;;;;15.18;14.32;;;;;;;12.39;100.00;100287.72;5051712;28;20032;-62
2022/09/14 03:55:03;;;;;;;15.63;14.73;;;;;;;12.52;100.00;100288.84;5050625;28;20024;-61
2022/09/14 03:57:29;;;;;;;14.95;14.15;;;;;;;12.54;100.00;100287.63;5044659;28;20492;-63
2022/09/14 03:59:54;;;;;;;15.60;14.70;;;;;;;12.64;100.00;100287.31;5051758;28;20052;-64
2022/09/14 04:02:20;;;;;;;15.25;14.35;;;;;;;12.81;100.00;100277.19;5050028;28;20488;-63
2022/09/14 04:04:47;;;;;;;14.75;13.95;;;;;;;13.50;100.00;100282.47;5050436;28;20020;-62
2022/09/14 04:07:14;;;;;;;14.15;13.45;;;;;;;13.28;100.00;100282.56;5042161;28;20044;-63
2022/09/14 04:09:39;;;;;;;14.65;13.85;;;;;;;13.14;100.00;100280.84;5046727;28;20084;-63
2022/09/14 04:12:05;;;;;;;15.27;14.43;;;;;;;13.03;100.00;100284.06;5040924;28;20029;-62
2022/09/14 04:14:31;;;;;;;14.68;13.88;;;;;;;13.15;100.00;100282.50;5049194;28;20040;-61
2022/09/14 04:16:57;;;;;;;15.35;14.45;;;;;;;13.31;100.00;100280.56;5050513;28;20040;-63
2022/09/14 04:19:23;;;;;;;14.80;14.00;;;;;;;13.32;100.00;100287.53;5041324;28;20036;-62
2022/09/14 04:21:48;;;;;;;16.10;15.10;;;;;;;13.45;100.00;100284.91;5038103;28;20029;-61
2022/09/14 04:24:14;;;;;;;14.30;13.60;;;;;;;13.52;100.00;100291.09;5038060;28;20025;-63
2022/09/14 04:26:39;;;;;;;15.50;14.60;;;;;;;13.58;100.00;100260.97;5043246;28;20081;-63
2022/09/14 04:29:05;;;;;;;16.27;15.27;;;;;;;13.71;100.00;100271.66;5051003;28;20029;-63
2022/09/14 04:31:31;;;;;;;16.10;15.10;;;;;;;13.95;100.00;100283.59;5049473;28;20021;-63
2022/09/14 04:33:57;;;;;;;14.55;13.75;;;;;;;14.09;100.00;100285.25;5050972;28;20028;-63
2022/09/14 04:36:27;;;;;;;14.75;13.95;;;;;;;13.99;100.00;100284.03;5046667;28;20025;-63
2022/09/14 04:38:54;;;;;;;14.73;13.93;;;;;;;14.05;100.00;100276.03;5039898;28;20036;-63
2022/09/14 04:41:20;;;;;;;15.60;14.70;;;;;;;14.09;100.00;100266.59;5041807;28;20033;-63
2022/09/14 04:43:49;;;;;;;15.05;14.25;;;;;;;14.24;100.00;100278.91;5050913;28;20068;-63
2022/09/14 04:46:18;;;;;;;15.57;14.68;;;;;;;14.18;100.00;100277.91;5050857;28;20066;-62
2022/09/14 04:48:44;;;;;;;17.88;16.63;;;;;;;14.34;100.00;100290.84;5047778;28;20036;-63
2022/09/14 04:51:15;;;;;;;14.73;13.93;;;;;;;14.68;100.00;100288.19;5033577;28;20032;-62
2022/09/14 04:53:41;;;;;;;14.80;14.00;;;;;;;14.70;100.00;100283.47;5049016;28;20384;-63
2022/09/14 04:56:09;;;;;;;14.68;13.88;;;;;;;15.12;100.00;100287.47;5041590;28;20443;-63
2022/09/14 04:58:41;;;;;;;16.00;15.00;;;;;;;15.19;100.00;100297.09;5037180;28;20043;-63
2022/09/14 05:01:09;;;;;;;16.25;15.25;;;;;;;15.14;100.00;100293.44;5055122;28;20021;-63
2022/09/14 05:03:39;;;;;;;15.48;14.57;;;;;;;15.15;100.00;100295.91;5043462;28;20425;-62
2022/09/14 05:06:14;;;;;;;15.95;14.95;;;;;;;15.26;100.00;100280.22;5039807;28;20120;-61
2022/09/14 05:08:40;;;;;;;16.85;15.75;;;;;;;15.63;100.00;100278.66;5038616;28;20461;-63
2022/09/14 05:11:07;;;;;;;15.80;14.82;;;;;;;15.78;100.00;100281.06;5039428;28;20032;-63
2022/09/14 05:13:34;;;;;;;15.32;14.43;;;;;;;15.90;100.00;100274.81;5041807;28;20055;-63
2022/09/14 05:16:09;;;;;;;14.40;13.60;;;;;;;16.44;100.00;100285.94;5050210;28;20518;-62
2022/09/14 05:18:35;;;;;;;15.00;14.15;;;;;;;19.16;100.00;100283.88;5042070;28;20036;-62
2022/09/14 05:21:06;;;;;;;13.82;13.13;;;;;;;20.81;100.00;100282.00;5048744;28;20100;-63
2022/09/14 05:23:32;;;;;;;14.93;14.10;;;;;;;23.35;100.00;100277.31;5031910;28;20128;-62
2022/09/14 05:25:59;;;;;;;13.68;12.98;;;;;;;25.08;97.29;100278.25;5047274;28;20021;-63
2022/09/14 05:28:25;;;;;;;13.50;12.80;;;;;;;26.65;89.12;100278.34;5044602;28;20033;-63
2022/09/14 05:30:51;;;;;;;13.48;12.77;;;;;;;26.74;78.83;100286.72;5052205;28;20037;-62
2022/09/14 05:33:17;;;;;;;13.30;12.70;;;;;;;29.16;62.46;100290.75;5042402;28;20132;-62
2022/09/14 05:35:43;;;;;;;13.65;12.95;;;;;;;29.02;55.87;100289.13;5045435;28;20166;-62
2022/09/14 05:38:09;;;;;;;15.43;14.63;;;;;;;29.66;51.43;100282.59;5045549;28;20025;-63
2022/09/14 05:40:34;;;;;;;13.95;13.25;;;;;;;29.11;54.49;100284.56;5042388;28;20021;-62
2022/09/14 05:43:00;;;;;;;13.85;13.15;;;;;;;30.72;51.35;100291.28;5052423;28;20021;-64
2022/09/14 05:45:25;;;;;;;13.98;13.27;;;;;;;30.52;52.02;100295.31;5051007;28;20111;-62
2022/09/14 05:47:51;;;;;;;13.30;12.70;;;;;;;31.70;45.97;100293.66;5040400;28;20120;-64
2022/09/14 05:50:16;;;;;;;12.73;12.13;;;;;;;31.64;47.69;100292.19;5053000;28;20029;-63
2022/09/14 05:52:42;;;;;;;13.52;12.93;;;;;;;32.14;43.44;100292.53;5039793;28;20041;-64
2022/09/14 05:55:07;;;;;;;13.30;12.70;;;;;;;32.54;42.46;100291.50;5053645;28;20021;-63
2022/09/14 05:57:33;;;;;;;12.80;12.20;;;;;;;32.90;42.63;100300.13;5054020;28;20049;-65
2022/09/14 05:59:58;;;;;;;13.40;12.80;;;;;;;31.82;40.65;100295.78;5053850;28;20073;-63
2022/09/14 06:02:24;;;;;;;12.95;12.35;;;;;;;30.09;43.20;100295.84;5052135;28;20484;-64
2022/09/14 06:04:50;;;;;;;13.48;12.88;;;;;;;31.54;40.67;100285.09;5053954;28;20032;-63
2022/09/14 06:07:16;;;;;;;13.23;12.63;;;;;;;31.48;38.47;100291.06;5052708;28;20036;-63
2022/09/14 06:09:41;;;;;;;14.02;13.32;;;;;;;31.36;38.63;100299.88;5051911;28;20103;-64
2022/09/14 06:12:07;;;;;;;13.10;12.50;;;;;;;30.54;40.56;100295.81;5054131;28;20108;-64
2022/09/14 06:14:33;;;;;;;13.07;12.48;;;;;;;30.93;37.99;100299.75;5053492;28;20495;-64
2022/09/14 06:16:59;;;;;;;13.80;13.10;;;;;;;31.41;38.66;100298.94;5053639;28;20100;-63
2022/09/14 06:19:25;;;;;;;13.27;12.68;;;;;;;31.22;39.14;100293.72;5053243;28;20044;-64
2022/09/14 06:21:51;;;;;;;12.70;12.10;;;;;;;31.17;38.54;100293.84;5054346;28;20025;-64
2022/09/14 06:24:17;;;;;;;13.70;13.00;;;;;;;32.95;36.88;100299.16;5051837;28;20484;-64
2022/09/14 06:26:42;;;;;;;12.65;12.05;;;;;;;30.54;40.26;100301.28;5033579;28;20040;-64
2022/09/14 06:29:08;;;;;;;12.90;12.30;;;;;;;30.80;38.02;100299.53;5046208;28;20017;-63
2022/09/14 06:31:34;;;;;;;12.80;12.20;;;;;;;31.56;37.22;100299.28;5053386;28;20021;-63
2022/09/14 06:33:59;;;;;;;12.80;12.20;;;;;;;30.58;39.14;100301.47;5053959;28;20098;-64
2022/09/14 06:36:26;;;;;;;13.10;12.50;;;;;;;28.04;41.91;100294.59;5051569;28;20090;-62
2022/09/14 06:38:52;;;;;;;12.65;12.05;;;;;;;31.49;38.08;100298.16;5052972;28;20025;-65
2022/09/14 06:41:21;;;;;;;13.00;12.40;;;;;;;31.79;37.18;100301.91;5049090;28;20028;-64
2022/09/14 06:43:51;;;;;;;12.90;12.30;;;;;;;31.48;38.12;100302.81;5041295;28;20052;-79
2022/09/14 06:46:28;;;;;;;12.98;12.38;;;;;;;30.89;39.57;100307.78;5042855;28;20060;-69
2022/09/14 06:49:19;;;;;;;12.90;12.30;;;;;;;30.65;38.71;100301.84;5049964;28;20056;-70
2022/09/14 06:51:46;;;;;;;12.95;12.35;;;;;;;31.41;38.31;100293.47;5047839;28;20082;-71
2022/09/14 06:54:14;;;;;;;13.32;12.73;;;;;;;29.61;39.75;100290.91;5051666;28;20052;-69
2022/09/14 06:56:41;;;;;;;11.88;11.38;;;;;;;30.66;38.47;100293.34;5048542;28;20068;-70
2022/09/14 06:59:10;;;;;;;12.38;11.77;;;;;;;28.91;40.25;100288.50;5048214;28;20024;-70
2022/09/14 07:01:36;;;;;;;13.20;12.60;;;;;;;30.06;40.53;100299.19;5041017;28;20032;-70
2022/09/14 07:04:02;;;;;;;13.13;12.52;;;;;;;29.91;39.32;100294.88;5044101;28;20671;-71
2022/09/14 07:06:31;;;;;;;13.20;12.60;;;;;;;29.51;41.20;100296.59;5039987;28;20401;-70
2022/09/14 07:08:57;;;;;;;12.88;12.27;;;;;;;28.69;43.07;100286.44;5050623;28;20033;-69
2022/09/14 07:11:25;;;;;;;13.90;13.20;;;;;;;29.98;40.72;100287.06;5048066;28;20382;-69
2022/09/14 07:13:53;;;;;;;12.88;12.27;;;;;;;30.90;38.41;100281.19;5038065;28;20483;-69
2022/09/14 07:16:19;;;;;;;12.73;12.13;;;;;;;29.96;38.68;100275.59;5044674;28;20025;-70
2022/09/14 07:18:46;;;;;;;13.18;12.57;;;;;;;30.60;38.02;100274.59;5050090;28;20025;-71
2022/09/14 07:21:16;;;;;;;13.40;12.80;;;;;;;30.24;37.58;100275.50;5039818;28;20338;-71
2022/09/14 07:23:44;;;;;;;13.40;12.80;;;;;;;31.80;35.98;100281.56;5055804;28;20093;-72
2022/09/14 07:26:26;;;;;;;13.68;13.00;;;;;;;31.46;36.37;100274.94;5039591;28;20033;-70
2022/09/14 07:29:00;;;;;;;13.05;12.45;;;;;;;28.44;39.25;100268.63;5065697;28;20036;-70
2022/09/14 07:31:31;;;;;;;13.23;12.63;;;;;;;30.02;38.46;100270.81;5050158;28;20469;-70
2022/09/14 07:34:03;;;;;;;13.20;12.60;;;;;;;29.34;39.29;100267.16;5051741;28;20182;-70
2022/09/14 07:36:30;;;;;;;13.10;12.50;;;;;;;28.29;42.63;100266.13;5051056;28;20452;-70
2022/09/14 07:38:56;;;;;;;13.57;12.88;;;;;;;29.17;40.81;100258.78;5040379;28;20024;-70
2022/09/14 07:41:27;;;;;;;12.82;12.23;;;;;;;28.98;40.78;100252.63;5055511;28;20051;-70
2022/09/14 07:43:56;;;;;;;13.38;12.73;;;;;;;29.79;40.91;100252.78;5051327;28;20365;-70
2022/09/14 07:46:22;;;;;;;13.50;12.82;;;;;;;29.57;40.75;100246.16;5040815;28;20030;-70
2022/09/14 07:48:53;;;;;;;13.88;13.18;;;;;;;28.87;41.73;100243.81;5031205;28;20579;-69
2022/09/14 07:51:18;;;;;;;13.00;12.40;;;;;;;29.43;42.01;100242.63;5036368;28;20063;-68
2022/09/14 07:53:44;;;;;;;13.23;12.43;;;;;;;29.70;39.63;100225.38;5050813;28;20049;-70
2022/09/14 07:56:12;;;;;;;12.55;11.95;;;;;;;31.00;37.96;100226.94;5043490;28;20048;-69
2022/09/14 07:58:38;;;;;;;12.88;12.27;;;;;;;29.57;40.41;100224.31;5042544;28;20021;-70
2022/09/14 08:01:10;;;;;;;13.15;12.55;;;;;;;31.31;37.82;100218.63;5054551;28;20035;-72
2022/09/14 08:03:38;;;;;;;13.15;12.55;;;;;;;27.93;41.51;100200.47;5045386;28;20021;-70
2022/09/14 08:06:07;;;;;;;13.77;13.07;;;;;;;28.33;41.75;100202.50;5046445;28;20046;-71
2022/09/14 08:08:35;;;;;;;13.50;12.80;;;;;;;29.12;40.31;100204.25;5043956;28;20150;-69
2022/09/14 08:11:18;;;;;;;13.75;13.05;;;;;;;28.15;42.03;100199.81;5043495;28;20044;-71
2022/09/14 08:13:48;;;;;;;13.43;12.75;;;;;;;27.48;45.45;100202.75;5049391;28;20350;-70
2022/09/14 08:16:13;;;;;;;13.18;12.57;;;;;;;27.47;44.69;100201.13;5042290;28;20087;-70
2022/09/14 08:18:39;;;;;;;13.90;13.20;;;;;;;27.44;44.05;100188.09;5047517;28;20124;-71
2022/09/14 08:21:08;;;;;;;13.23;12.52;;;;;;;26.78;46.51;100194.41;5055440;28;20123;-70
2022/09/14 08:23:34;;;;;;;13.85;13.15;;;;;;;27.68;44.13;100197.00;5049693;28;20029;-70
2022/09/14 08:26:05;;;;;;;14.00;13.30;;;;;;;27.90;44.73;100201.84;5046629;28;20098;-69
2022/09/14 08:28:31;;;;;;;14.50;13.70;;;;;;;28.44;45.27;100215.97;5049127;28;20103;-71
2022/09/14 08:31:11;;;;;;;14.30;13.60;;;;;;;26.97;49.37;100217.84;5054712;28;20169;-70
2022/09/14 08:33:41;;;;;;;13.50;12.80;;;;;;;26.50;49.71;100217.81;5047042;28;20489;-69
2022/09/14 08:36:08;;;;;;;14.10;13.40;;;;;;;26.51;53.15;100225.69;5050090;28;20089;-70
2022/09/14 08:38:37;;;;;;;14.80;14.00;;;;;;;25.73;55.98;100231.25;5055386;28;20153;-70
2022/09/14 08:41:18;;;;;;;14.18;13.45;;;;;;;27.58;50.68;100235.31;5053591;28;20488;-70
2022/09/14 08:43:44;;;;;;;13.82;13.13;;;;;;;26.55;51.38;100232.19;5049258;28;20069;-70
2022/09/14 08:46:32;;;;;;;14.55;13.75;;;;;;;24.87;59.32;100216.16;5046130;28;20044;-71
2022/09/14 08:49:00;;;;;;;13.90;13.20;;;;;;;25.88;58.21;100228.41;5051734;28;20025;-70
2022/09/14 08:51:26;;;;;;;13.88;13.18;;;;;;;25.10;63.59;100218.25;5049573;28;20033;-72
2022/09/14 08:53:55;;;;;;;15.40;14.50;;;;;;;25.66;64.19;100234.25;5053214;28;20166;-69
2022/09/14 08:56:25;;;;;;;13.73;13.02;;;;;;;25.52;62.52;100220.47;5055701;28;20029;-69
2022/09/14 08:59:07;;;;;;;14.05;13.35;;;;;;;25.19;65.41;100215.78;5045587;28;20036;-71
2022/09/14 09:01:34;;;;;;;13.70;13.00;;;;;;;25.37;63.36;100220.56;5050956;28;20034;-71
2022/09/14 09:04:30;;;;;;;13.88;13.18;;;;;;;25.26;63.09;100208.13;5054037;28;20036;-70
2022/09/14 09:07:18;;;;;;;14.60;13.80;;;;;;;25.18;62.29;100206.00;5060643;28;20056;-70
2022/09/14 09:09:47;;;;;;;14.55;13.75;;;;;;;25.70;59.30;100201.88;5047647;28;20064;-72
2022/09/14 09:12:20;;;;;;;17.85;16.73;;;;;;;26.84;53.00;100198.69;5067556;28;20051;-70
2022/09/14 09:14:48;;;;;;;14.80;14.00;;;;;;;25.60;54.81;100198.16;5046897;28;20032;-71
2022/09/14 09:17:24;;;;;;;15.70;14.80;;;;;;;25.70;55.20;100201.88;5054183;28;20032;-73
2022/09/14 09:20:11;;;;;;;15.45;14.55;;;;;;;26.16;52.46;100207.81;5050900;28;20048;-73
2022/09/14 09:22:41;;;;;;;14.60;13.80;;;;;;;26.51;50.66;100187.63;5046968;28;20147;-71
2022/09/14 09:25:19;;;;;;;14.60;13.80;;;;;;;26.86;49.19;100188.31;5049019;28;20040;-71
2022/09/14 09:27:46;;;;;;;13.75;13.05;;;;;;;26.67;48.49;100183.66;5052964;28;20539;-70
2022/09/14 09:30:14;;;;;;;14.25;13.50;;;;;;;25.90;49.42;100199.03;5043760;28;20032;-69
2022/09/14 09:32:39;;;;;;;15.10;14.27;;;;;;;26.29;49.02;100206.31;5053531;28;20041;-69
2022/09/14 09:35:05;;;;;;;14.95;14.15;;;;;;;25.66;54.18;100211.72;5055838;28;20036;-69
2022/09/14 09:37:36;;;;;;;14.63;13.82;;;;;;;25.41;54.32;100197.19;5041965;28;20526;-69
2022/09/14 09:40:13;;;;;;;15.07;14.25;;;;;;;25.43;54.71;100186.06;5055964;28;20053;-69
2022/09/14 09:43:12;;;;;;;14.25;13.50;;;;;;;24.67;54.00;100192.59;5054204;28;20388;-74
2022/09/14 09:45:53;;;;;;;14.18;13.40;;;;;;;24.67;52.64;100187.19;5046503;28;20149;-71
2022/09/14 09:48:23;;;;;;;14.77;13.98;;;;;;;25.18;52.68;100187.81;5051110;28;20123;-76
2022/09/14 09:51:15;;;;;;;15.13;14.30;;;;;;;25.25;51.12;100184.78;5058525;28;20040;-74
2022/09/14 09:53:54;;;;;;;14.77;13.98;;;;;;;25.40;51.41;100184.69;5062983;28;20043;-73
2022/09/14 09:56:24;;;;;;;15.48;14.57;;;;;;;24.89;52.42;100187.66;5042239;28;20036;-69
2022/09/14 09:58:50;;;;;;;14.85;14.05;;;;;;;24.71;56.12;100178.22;5050943;28;20047;-71
2022/09/14 10:01:34;;;;;;;15.55;14.65;;;;;;;23.92;60.77;100166.16;5039588;28;20025;-73
2022/09/14 10:04:05;;;;;;;13.77;13.07;;;;;;;24.58;59.35;100173.38;5040241;28;20095;-71
2022/09/14 10:06:31;;;;;;;15.23;14.32;;;;;;;24.29;63.14;100180.47;5049182;28;20128;-71
2022/09/14 10:08:57;;;;;;;15.55;14.65;;;;;;;24.10;63.50;100178.34;5048676;28;20033;-72
2022/09/14 10:11:35;;;;;;;13.63;12.93;;;;;;;24.75;59.84;100179.31;5052772;28;20037;-75
2022/09/14 10:14:02;;;;;;;15.70;14.80;;;;;;;24.75;58.69;100176.59;5051583;28;20029;-74
2022/09/14 10:16:42;;;;;;;14.90;14.10;;;;;;;24.77;59.24;100173.59;5050999;28;20114;-73
2022/09/14 10:19:19;;;;;;;15.45;14.55;;;;;;;24.51;55.92;100162.81;5043273;28;20511;-72
2022/09/14 10:22:22;;;;;;;14.25;13.45;;;;;;;24.52;53.37;100153.59;5050578;28;20028;-71
2022/09/14 10:24:55;;;;;;;14.48;13.68;;;;;;;24.32;53.47;100171.81;5046896;28;20072;-73
2022/09/14 10:27:38;;;;;;;;;;;;;;;24.53;55.29;100176.94;5046086;28;20120;-72
2022/09/14 10:30:12;;;;;;;14.90;14.10;;;;;;;24.77;55.43;100157.31;5050880;28;20419;-73
2022/09/14 10:32:41;;;;;;;14.77;13.98;;;;;;;24.95;53.55;100164.03;5047293;28;20119;-72
2022/09/14 10:35:13;;;;;;;14.85;14.05;;;;;;;24.78;54.29;100146.19;5054775;28;20039;-72
2022/09/14 10:38:10;;;;;;;15.57;14.68;;;;;;;25.24;53.44;100151.41;5051090;28;20029;-72
2022/09/14 10:40:42;;;;;;;16.40;15.40;;;;;;;24.73;54.84;100140.78;5041656;28;20098;-71
2022/09/14 10:43:15;;;;;;;15.73;14.82;;;;;;;24.86;54.62;100144.81;5044744;28;20037;-73
2022/09/14 10:45:49;;;;;;;15.52;14.63;;;;;;;25.23;54.35;100147.06;5051733;28;20436;-72
2022/09/14 10:48:21;;;;;;;15.00;14.15;;;;;;;25.08;55.33;100131.69;5044062;28;20033;-72
2022/09/14 10:51:19;;;;;;;15.57;14.68;;;;;;;25.52;54.33;100136.28;5055838;28;20128;-72
2022/09/14 10:54:18;;;;;;;15.73;14.82;;;;;;;25.73;53.43;100131.53;5044403;28;20673;-72
2022/09/14 10:57:18;;;;;;;15.43;14.52;;;;;;;25.70;53.33;100145.63;5049920;28;20028;-72
2022/09/14 10:59:53;;;;;;;15.05;14.20;;;;;;;25.85;52.99;100134.69;5046904;28;20037;-71
2022/09/14 11:02:31;;;;;;;14.00;13.27;;;;;;;25.62;52.21;100132.66;5049061;28;20112;-71
2022/09/14 11:05:40;;;;;;;15.90;14.98;;;;;;;25.80;51.48;100139.34;5047663;28;20484;-71
2022/09/14 11:08:30;;;;;;;14.80;14.00;;;;;;;25.66;49.43;100138.34;5060408;28;20044;-72
2022/09/14 11:11:15;;;;;;;14.27;13.48;;;;;;;25.75;50.50;100134.75;5041764;28;20029;-72
2022/09/14 11:14:18;;;;;;;14.85;14.05;;;;;;;25.51;51.16;100129.22;5041096;28;20034;-73
2022/09/14 11:17:02;;;;;;;14.85;14.05;;;;;;;25.22;50.54;100141.94;5040074;28;20028;-73
2022/09/14 11:19:43;;;;;;;13.10;12.50;;;;;;;25.69;51.55;100144.03;5040952;28;20111;-72
2022/09/14 11:22:23;;;;;;;13.98;13.27;;;;;;;25.55;49.37;100132.19;5042456;28;20268;-71
2022/09/14 11:25:04;;;;;;;13.65;12.95;;;;;;;25.94;50.29;100131.34;5050018;28;20025;-71